Time;durP1;ratioP1;P1;durP2;ratioP2;P2;SDS_P1;SDS_P2;PMS_P1;PMS_P2;Temp;Humidity;BMP_temperature;BMP_pressure;BME280_temperature;BME280_humidity;BME280_pressure;Samples;Min_cycle;Max_cycle;Signal;HPM_P1;HPM_P2
2023/12/14 00:00:45;;;;;;;1.60;1.20;;;4.60;99.90;;;;;;4962100;28;20257;-54
2023/12/14 00:03:11;;;;;;;1.97;1.37;;;4.50;99.90;;;;;;4952731;28;20194;-55
2023/12/14 00:05:36;;;;;;;1.67;1.30;;;4.50;99.90;;;;;;4956591;28;20185;-53
2023/12/14 00:08:02;;;;;;;1.40;1.10;;;4.50;99.90;;;;;;4955280;28;20254;-57
2023/12/14 00:10:28;;;;;;;1.37;1.20;;;4.50;99.90;;;;;;4949693;28;20178;-56
2023/12/14 00:12:55;;;;;;;1.40;1.20;;;4.50;99.90;;;;;;4951423;28;20202;-54
2023/12/14 00:15:20;;;;;;;1.07;0.90;;;4.50;99.90;;;;;;4944646;28;20646;-56
2023/12/14 00:17:46;;;;;;;1.60;1.30;;;4.50;99.90;;;;;;4953228;28;20406;-54
2023/12/14 00:20:12;;;;;;;1.30;1.10;;;4.50;99.90;;;;;;4951983;28;20214;-55
2023/12/14 00:22:38;;;;;;;2.00;1.10;;;4.50;99.90;;;;;;4949743;28;20625;-56
2023/12/14 00:25:05;;;;;;;1.50;1.40;;;4.50;99.90;;;;;;4950733;28;20215;-53
2023/12/14 00:27:30;;;;;;;1.20;1.20;;;4.50;99.90;;;;;;4950306;28;20264;-54
2023/12/14 00:29:56;;;;;;;2.10;1.33;;;4.50;99.90;;;;;;4947983;28;20518;-54
2023/12/14 00:32:22;;;;;;;1.00;1.00;;;4.50;99.90;;;;;;4952061;28;20182;-55
2023/12/14 00:34:48;;;;;;;1.63;1.40;;;4.50;99.90;;;;;;4958114;28;20201;-54
2023/12/14 00:37:14;;;;;;;1.10;1.00;;;4.50;99.90;;;;;;4949666;28;20568;-56
2023/12/14 00:39:40;;;;;;;1.40;1.30;;;4.50;99.90;;;;;;4950464;28;20466;-54
2023/12/14 00:42:05;;;;;;;3.40;1.30;;;4.50;99.90;;;;;;4951222;28;20261;-56
2023/12/14 00:44:31;;;;;;;1.30;1.20;;;4.40;99.90;;;;;;4949244;28;20194;-56
2023/12/14 00:46:58;;;;;;;2.03;1.70;;;4.40;99.90;;;;;;4944061;28;20183;-55
2023/12/14 00:49:24;;;;;;;1.87;1.50;;;4.40;99.90;;;;;;4949962;28;20182;-56
2023/12/14 00:51:49;;;;;;;3.03;1.57;;;4.50;99.90;;;;;;4954528;28;20422;-56
2023/12/14 00:54:15;;;;;;;1.60;1.50;;;4.40;99.90;;;;;;4952298;28;20233;-55
2023/12/14 00:56:41;;;;;;;2.07;1.73;;;4.40;99.90;;;;;;4948474;28;20190;-55
2023/12/14 00:59:06;;;;;;;2.80;1.97;;;4.50;99.90;;;;;;4949864;28;20201;-55
2023/12/14 01:01:32;;;;;;;4.53;2.40;;;4.50;99.90;;;;;;4951858;28;20319;-54
2023/12/14 01:03:59;;;;;;;6.70;2.63;;;4.50;99.90;;;;;;4948880;28;20207;-58
2023/12/14 01:06:25;;;;;;;12.13;3.90;;;4.50;99.90;;;;;;4951839;28;20627;-55
2023/12/14 01:08:50;;;;;;;1.67;1.53;;;4.50;99.90;;;;;;4952066;28;20977;-54
2023/12/14 01:11:16;;;;;;;4.73;1.30;;;4.50;99.90;;;;;;4951809;28;20274;-57
2023/12/14 01:13:41;;;;;;;2.10;1.47;;;4.50;99.90;;;;;;4951276;28;20293;-55
2023/12/14 01:16:07;;;;;;;3.43;1.40;;;4.50;99.90;;;;;;4952792;28;20189;-55
2023/12/14 01:18:33;;;;;;;1.37;1.27;;;4.50;99.90;;;;;;4950545;28;20204;-54
2023/12/14 01:20:58;;;;;;;1.20;1.10;;;4.50;99.90;;;;;;4950238;28;20493;-56
2023/12/14 01:23:24;;;;;;;1.40;1.30;;;4.50;99.90;;;;;;4943719;28;20209;-57
2023/12/14 01:25:50;;;;;;;1.30;1.20;;;4.50;99.90;;;;;;4948130;28;20185;-55
2023/12/14 01:28:15;;;;;;;1.83;1.30;;;4.50;99.90;;;;;;4951320;28;20282;-57
2023/12/14 01:30:41;;;;;;;1.47;1.20;;;4.50;99.90;;;;;;4951774;28;20178;-54
2023/12/14 01:33:06;;;;;;;3.17;1.90;;;4.50;99.90;;;;;;4948098;28;20211;-55
2023/12/14 01:35:32;;;;;;;2.77;1.70;;;4.50;99.90;;;;;;4949767;28;20190;-53
2023/12/14 01:37:58;;;;;;;5.30;2.50;;;4.50;99.90;;;;;;4947052;28;20189;-55
2023/12/14 01:40:23;;;;;;;2.60;1.67;;;4.50;99.90;;;;;;4944286;28;20198;-55
2023/12/14 01:42:49;;;;;;;2.40;1.70;;;4.50;99.90;;;;;;4946376;28;20281;-54
2023/12/14 01:45:16;;;;;;;3.00;1.50;;;4.50;99.90;;;;;;4950301;28;20553;-57
2023/12/14 01:47:42;;;;;;;5.47;2.97;;;4.50;99.90;;;;;;4942563;28;20194;-52
2023/12/14 01:50:08;;;;;;;3.40;2.33;;;4.40;99.90;;;;;;4941935;28;20443;-56
2023/12/14 01:52:34;;;;;;;3.00;2.40;;;4.40;99.90;;;;;;4949491;28;20446;-54
2023/12/14 01:54:59;;;;;;;6.30;2.00;;;4.40;99.90;;;;;;4950342;28;20838;-56
2023/12/14 01:57:25;;;;;;;3.07;2.03;;;4.40;99.90;;;;;;4950915;28;20198;-55
2023/12/14 01:59:50;;;;;;;2.30;1.70;;;4.40;99.90;;;;;;4953399;28;20202;-53
2023/12/14 02:02:16;;;;;;;2.37;1.77;;;4.40;99.90;;;;;;4951027;28;20196;-53
2023/12/14 02:04:42;;;;;;;2.17;1.73;;;4.40;99.90;;;;;;4953145;28;20178;-55
2023/12/14 02:07:07;;;;;;;2.60;1.87;;;4.40;99.90;;;;;;4949448;28;20235;-55
2023/12/14 02:09:33;;;;;;;2.70;2.17;;;4.40;99.90;;;;;;4947337;28;20183;-54
2023/12/14 02:11:58;;;;;;;3.63;2.57;;;4.40;99.90;;;;;;4950464;28;20206;-54
2023/12/14 02:14:24;;;;;;;2.43;2.03;;;4.40;99.90;;;;;;4951220;28;20330;-55
2023/12/14 02:16:50;;;;;;;2.80;1.90;;;4.40;99.90;;;;;;4943220;28;20646;-56
2023/12/14 02:19:15;;;;;;;1.97;1.70;;;4.40;99.90;;;;;;4935575;28;20218;-55
2023/12/14 02:21:42;;;;;;;1.80;1.50;;;4.40;99.90;;;;;;4949982;28;20202;-55
2023/12/14 02:24:07;;;;;;;2.87;2.13;;;4.40;99.90;;;;;;4949587;28;20203;-53
2023/12/14 02:26:33;;;;;;;3.73;2.00;;;4.40;99.90;;;;;;4950842;28;20477;-54
2023/12/14 02:28:58;;;;;;;2.97;2.13;;;4.40;99.90;;;;;;4940436;28;20562;-52
2023/12/14 02:31:24;;;;;;;10.87;4.57;;;4.40;99.90;;;;;;4950837;28;20712;-56
2023/12/14 02:33:50;;;;;;;5.17;4.00;;;4.40;99.90;;;;;;4948763;28;20201;-52
2023/12/14 02:36:15;;;;;;;7.43;4.70;;;4.40;99.90;;;;;;4953139;28;20191;-54
2023/12/14 02:38:41;;;;;;;7.17;4.47;;;4.40;99.90;;;;;;4950006;28;20209;-55
2023/12/14 02:41:06;;;;;;;7.73;4.97;;;4.40;99.90;;;;;;4938141;28;20203;-55
2023/12/14 02:43:33;;;;;;;9.90;5.87;;;4.40;99.90;;;;;;4945203;28;20206;-55
2023/12/14 02:46:01;;;;;;;10.20;5.67;;;4.40;99.90;;;;;;4948169;28;20187;-56
2023/12/14 02:48:29;;;;;;;10.20;4.63;;;4.50;99.90;;;;;;4949049;28;20943;-56
2023/12/14 02:50:55;;;;;;;5.70;4.40;;;4.50;99.90;;;;;;4941465;28;20469;-57
2023/12/14 02:53:20;;;;;;;5.10;4.03;;;4.50;99.90;;;;;;4949069;28;20852;-51
2023/12/14 02:55:46;;;;;;;9.23;3.50;;;4.40;99.90;;;;;;4941102;28;20187;-55
2023/12/14 02:58:11;;;;;;;5.90;4.07;;;4.40;99.90;;;;;;4945080;28;20206;-54
2023/12/14 03:00:37;;;;;;;6.00;4.13;;;4.40;99.90;;;;;;4943717;28;20551;-55
2023/12/14 03:03:03;;;;;;;5.70;4.30;;;4.40;99.90;;;;;;4949464;28;20201;-54
2023/12/14 03:05:28;;;;;;;4.53;3.77;;;4.40;99.90;;;;;;4946431;28;20183;-55
2023/12/14 03:07:54;;;;;;;4.57;3.47;;;4.40;99.90;;;;;;4949703;28;20183;-55
2023/12/14 03:10:19;;;;;;;5.10;3.87;;;4.40;99.90;;;;;;4953635;28;20258;-55
2023/12/14 03:12:45;;;;;;;5.43;3.80;;;4.40;99.90;;;;;;4948071;28;20199;-55
2023/12/14 03:15:10;;;;;;;14.40;4.20;;;4.30;99.90;;;;;;4945864;28;20181;-58
2023/12/14 03:17:36;;;;;;;5.33;4.10;;;4.30;99.90;;;;;;4948149;28;20174;-54
2023/12/14 03:20:03;;;;;;;5.90;3.90;;;4.30;99.90;;;;;;4945571;28;20218;-54
2023/12/14 03:22:29;;;;;;;4.97;3.87;;;4.30;99.90;;;;;;4952775;28;20191;-55
2023/12/14 03:24:54;;;;;;;6.73;3.80;;;4.30;99.90;;;;;;4943123;28;20435;-53
2023/12/14 03:27:22;;;;;;;4.20;3.70;;;4.30;99.90;;;;;;4948641;28;20177;-56
2023/12/14 03:29:48;;;;;;;8.87;4.10;;;4.20;99.90;;;;;;4943606;28;20693;-55
2023/12/14 03:32:13;;;;;;;4.30;3.73;;;4.20;99.90;;;;;;4951822;28;20433;-54
2023/12/14 03:34:39;;;;;;;10.13;4.03;;;4.20;99.90;;;;;;4948084;28;20689;-53
2023/12/14 03:37:04;;;;;;;5.77;4.17;;;4.20;99.90;;;;;;4945835;28;20181;-55
2023/12/14 03:39:30;;;;;;;4.20;3.00;;;4.20;99.90;;;;;;4946394;28;20754;-55
2023/12/14 03:41:55;;;;;;;3.17;2.90;;;4.10;99.90;;;;;;4956457;28;20182;-53
2023/12/14 03:44:21;;;;;;;5.30;3.80;;;4.10;99.90;;;;;;4953184;28;20186;-55
2023/12/14 03:46:47;;;;;;;5.33;4.27;;;4.10;99.90;;;;;;4941118;28;20183;-54
2023/12/14 03:49:13;;;;;;;4.30;3.37;;;4.00;99.90;;;;;;4953382;28;20260;-54
2023/12/14 03:51:38;;;;;;;5.33;3.43;;;4.00;99.90;;;;;;4951467;28;20761;-56
2023/12/14 03:54:04;;;;;;;4.80;3.77;;;4.00;99.90;;;;;;4945502;28;20201;-53
2023/12/14 03:56:29;;;;;;;4.13;3.30;;;4.00;99.90;;;;;;4953386;28;20179;-53
2023/12/14 03:58:57;;;;;;;5.47;3.90;;;4.00;99.90;;;;;;4951142;28;20661;-54
2023/12/14 04:01:22;;;;;;;8.33;4.87;;;4.00;99.90;;;;;;4945038;28;20709;-54
2023/12/14 04:03:48;;;;;;;6.83;5.00;;;4.00;99.90;;;;;;4952761;28;20436;-55
2023/12/14 04:06:14;;;;;;;7.30;4.80;;;4.00;99.90;;;;;;4941832;28;20183;-55
2023/12/14 04:08:40;;;;;;;7.67;5.40;;;4.00;99.90;;;;;;4948715;28;20265;-54
2023/12/14 04:11:06;;;;;;;6.50;4.73;;;4.00;99.90;;;;;;4951876;28;20418;-53
2023/12/14 04:13:32;;;;;;;9.77;5.00;;;4.00;99.90;;;;;;4944624;28;20442;-56
2023/12/14 04:15:58;;;;;;;6.17;4.63;;;4.00;99.90;;;;;;4942504;28;20680;-54
2023/12/14 04:18:24;;;;;;;7.40;4.80;;;4.00;99.90;;;;;;4943736;28;20454;-55
2023/12/14 04:20:50;;;;;;;6.17;4.27;;;4.00;99.90;;;;;;4940836;28;20213;-54
2023/12/14 04:23:16;;;;;;;6.90;4.53;;;4.00;99.90;;;;;;4938767;28;20509;-55
2023/12/14 04:25:41;;;;;;;18.67;4.80;;;4.00;99.90;;;;;;4951774;28;20205;-56
2023/12/14 04:28:07;;;;;;;19.10;5.30;;;4.00;99.90;;;;;;4953734;28;20232;-58
2023/12/14 04:30:32;;;;;;;23.07;4.53;;;4.00;99.90;;;;;;4952829;28;20657;-54
2023/12/14 04:32:58;;;;;;;13.50;4.60;;;4.00;99.90;;;;;;4942310;28;20194;-54
2023/12/14 04:35:24;;;;;;;10.70;4.80;;;4.00;99.90;;;;;;4948575;28;20182;-55
2023/12/14 04:37:49;;;;;;;12.93;4.33;;;4.00;99.90;;;;;;4945888;28;20242;-54
2023/12/14 04:40:15;;;;;;;10.30;4.40;;;3.90;99.90;;;;;;4946803;28;20217;-55
2023/12/14 04:42:41;;;;;;;22.60;3.70;;;3.90;99.90;;;;;;4943358;28;20209;-55
2023/12/14 04:45:08;;;;;;;9.43;3.47;;;3.90;99.90;;;;;;4951596;28;20185;-55
2023/12/14 04:47:35;;;;;;;9.27;3.53;;;3.90;99.90;;;;;;4947216;28;20182;-54
2023/12/14 04:50:01;;;;;;;7.47;4.00;;;3.80;99.90;;;;;;4948373;28;20508;-55
2023/12/14 04:52:26;;;;;;;7.50;3.27;;;3.80;99.90;;;;;;4949176;28;20418;-55
2023/12/14 04:54:52;;;;;;;9.17;4.10;;;3.80;99.90;;;;;;4936857;28;21049;-56
2023/12/14 04:57:18;;;;;;;15.57;3.70;;;3.80;99.90;;;;;;4942575;28;20194;-54
2023/12/14 04:59:43;;;;;;;6.30;4.00;;;3.80;99.90;;;;;;4947128;28;20209;-55
2023/12/14 05:02:09;;;;;;;5.03;2.87;;;3.80;99.90;;;;;;4940084;28;20174;-55
2023/12/14 05:04:35;;;;;;;3.10;2.63;;;3.80;99.90;;;;;;4945877;28;20567;-56
2023/12/14 05:07:00;;;;;;;3.40;2.97;;;3.80;99.90;;;;;;4950816;28;20657;-56
2023/12/14 05:09:26;;;;;;;4.13;2.93;;;3.80;99.90;;;;;;4948045;28;20222;-55
2023/12/14 05:11:52;;;;;;;2.93;2.70;;;3.80;99.90;;;;;;4948296;28;20544;-55
2023/12/14 05:14:18;;;;;;;5.27;3.67;;;3.80;99.90;;;;;;4947390;28;20553;-55
2023/12/14 05:16:44;;;;;;;5.80;3.60;;;3.80;99.90;;;;;;4947945;28;20437;-56
2023/12/14 05:19:09;;;;;;;7.50;4.30;;;3.80;99.90;;;;;;4947416;28;20199;-55
2023/12/14 05:21:35;;;;;;;11.33;4.90;;;3.70;99.90;;;;;;4951982;28;20735;-55
2023/12/14 05:24:01;;;;;;;6.90;3.60;;;3.80;99.90;;;;;;4939128;28;20194;-57
2023/12/14 05:26:26;;;;;;;7.87;5.30;;;3.70;99.90;;;;;;4950469;28;20173;-56
2023/12/14 05:28:52;;;;;;;7.37;4.67;;;3.70;99.90;;;;;;4951619;28;20318;-55
2023/12/14 05:31:18;;;;;;;10.00;4.20;;;3.80;99.90;;;;;;4942492;28;20233;-55
2023/12/14 05:33:43;;;;;;;16.30;7.60;;;3.70;99.90;;;;;;4944759;28;20689;-56
2023/12/14 05:36:10;;;;;;;17.53;5.43;;;3.70;99.90;;;;;;4938370;28;20268;-58
2023/12/14 05:38:38;;;;;;;8.93;4.50;;;3.70;99.90;;;;;;4948806;28;20705;-53
2023/12/14 05:41:04;;;;;;;14.33;4.20;;;3.70;99.90;;;;;;4948770;28;20410;-56
2023/12/14 05:43:29;;;;;;;6.57;4.00;;;3.70;99.90;;;;;;4948599;28;20433;-55
2023/12/14 05:45:55;;;;;;;5.47;3.37;;;3.70;99.90;;;;;;4938432;28;20170;-55
2023/12/14 05:48:21;;;;;;;10.40;3.90;;;3.60;99.90;;;;;;4947894;28;20205;-54
2023/12/14 05:50:46;;;;;;;5.37;3.67;;;3.60;99.90;;;;;;4948539;28;20589;-54
2023/12/14 05:53:12;;;;;;;6.00;3.30;;;3.60;99.90;;;;;;4949965;28;20277;-57
2023/12/14 05:55:39;;;;;;;5.00;3.43;;;3.60;99.90;;;;;;4946110;28;20565;-54
2023/12/14 05:58:05;;;;;;;9.73;3.23;;;3.60;99.90;;;;;;4944877;28;20265;-54
2023/12/14 06:00:31;;;;;;;6.03;3.40;;;3.60;99.90;;;;;;4939448;28;20497;-54
2023/12/14 06:02:57;;;;;;;5.10;3.40;;;3.60;99.90;;;;;;4946423;28;20573;-55
2023/12/14 06:05:22;;;;;;;6.80;4.20;;;3.60;99.90;;;;;;4946055;28;20436;-56
2023/12/14 06:07:48;;;;;;;5.73;4.60;;;3.60;99.90;;;;;;4951935;28;20723;-54
2023/12/14 06:10:14;;;;;;;6.60;4.17;;;3.60;99.90;;;;;;4951546;28;20567;-54
2023/12/14 06:12:39;;;;;;;6.10;4.13;;;3.60;99.90;;;;;;4946146;28;20301;-54
2023/12/14 06:15:06;;;;;;;6.07;4.43;;;3.60;99.90;;;;;;4944639;28;20210;-56
2023/12/14 06:17:33;;;;;;;5.03;4.00;;;3.70;99.90;;;;;;4951679;28;20175;-55
2023/12/14 06:19:59;;;;;;;5.57;4.33;;;3.70;99.90;;;;;;4950776;28;20466;-55
2023/12/14 06:22:26;;;;;;;7.10;4.27;;;3.70;99.90;;;;;;4951911;28;20452;-57
2023/12/14 06:24:52;;;;;;;5.97;4.77;;;3.70;99.90;;;;;;4948030;28;20436;-54
2023/12/14 06:27:17;;;;;;;5.13;3.57;;;3.70;99.90;;;;;;4944544;28;20425;-54
2023/12/14 06:29:43;;;;;;;10.07;4.30;;;3.70;99.90;;;;;;4950048;28;20225;-56
2023/12/14 06:32:09;;;;;;;4.20;3.50;;;3.70;99.90;;;;;;4951164;28;20177;-56
2023/12/14 06:34:34;;;;;;;3.73;3.30;;;3.70;99.90;;;;;;4944757;28;20199;-52
2023/12/14 06:37:01;;;;;;;6.80;3.43;;;3.70;99.90;;;;;;4949160;28;20639;-56
2023/12/14 06:39:27;;;;;;;10.40;5.93;;;3.80;99.90;;;;;;4952253;28;20221;-56
2023/12/14 06:41:53;;;;;;;5.83;3.17;;;3.80;99.90;;;;;;4947521;28;20937;-54
2023/12/14 06:44:19;;;;;;;3.60;3.00;;;3.70;99.90;;;;;;4949854;28;20591;-56
2023/12/14 06:46:44;;;;;;;5.00;3.50;;;3.70;99.90;;;;;;4948425;28;20423;-54
2023/12/14 06:49:10;;;;;;;3.97;2.80;;;3.80;99.90;;;;;;4951871;28;20182;-56
2023/12/14 06:51:36;;;;;;;4.77;3.53;;;3.80;99.90;;;;;;4953716;28;20241;-55
2023/12/14 06:54:01;;;;;;;6.50;4.93;;;3.80;99.90;;;;;;4946064;28;20711;-57
2023/12/14 06:56:27;;;;;;;7.37;4.07;;;3.80;99.90;;;;;;4950592;28;20564;-56
2023/12/14 06:58:53;;;;;;;6.33;4.27;;;3.80;99.90;;;;;;4947895;28;20229;-56
2023/12/14 07:01:18;;;;;;;7.40;5.00;;;3.80;99.90;;;;;;4951026;28;20444;-54
2023/12/14 07:03:45;;;;;;;12.67;7.17;;;3.80;99.90;;;;;;4946038;28;20191;-54
2023/12/14 07:06:15;;;;;;;10.83;5.87;;;3.80;99.90;;;;;;4954396;28;20177;-55
2023/12/14 07:08:41;;;;;;;11.00;6.00;;;3.80;99.90;;;;;;4948666;28;20486;-57
2023/12/14 07:11:11;;;;;;;9.13;6.10;;;3.80;99.90;;;;;;4945381;28;20537;-56
2023/12/14 07:13:36;;;;;;;10.50;6.70;;;3.80;99.90;;;;;;4950303;28;20484;-54
2023/12/14 07:16:10;;;;;;;17.63;6.40;;;3.80;99.90;;;;;;4946716;28;20431;-53
2023/12/14 07:18:40;;;;;;;9.20;5.77;;;3.80;99.90;;;;;;4938185;28;20205;-54
2023/12/14 07:21:06;;;;;;;8.43;5.60;;;3.80;99.90;;;;;;4949480;28;20444;-54
2023/12/14 07:23:33;;;;;;;9.90;5.60;;;3.80;99.90;;;;;;4950202;28;20462;-58
2023/12/14 07:25:58;;;;;;;7.50;5.03;;;3.90;99.90;;;;;;4945456;28;20761;-55
2023/12/14 07:28:24;;;;;;;7.67;4.60;;;3.90;99.90;;;;;;4952597;28;20425;-53
2023/12/14 07:30:50;;;;;;;7.60;5.13;;;3.90;99.90;;;;;;4946306;28;20186;-54
2023/12/14 07:33:16;;;;;;;13.47;5.57;;;3.90;99.90;;;;;;4953497;28;20525;-55
2023/12/14 07:35:42;;;;;;;25.43;4.90;;;3.90;99.90;;;;;;4944722;28;20812;-56
2023/12/14 07:38:08;;;;;;;14.83;4.83;;;3.90;99.90;;;;;;4944926;28;20452;-55
2023/12/14 07:40:33;;;;;;;5.77;3.83;;;3.90;99.90;;;;;;4952157;28;20185;-53
2023/12/14 07:42:59;;;;;;;4.53;3.60;;;3.90;99.90;;;;;;4952848;28;20442;-58
2023/12/14 07:45:25;;;;;;;4.47;3.20;;;3.90;99.90;;;;;;4946589;28;20245;-55
2023/12/14 07:47:50;;;;;;;5.80;3.77;;;3.90;99.90;;;;;;4952554;28;20598;-55
2023/12/14 07:50:16;;;;;;;5.77;4.00;;;4.00;99.90;;;;;;4954582;28;20261;-55
2023/12/14 07:52:41;;;;;;;6.00;3.37;;;4.00;99.90;;;;;;4950108;28;20623;-54
2023/12/14 07:55:07;;;;;;;10.03;3.73;;;4.00;99.90;;;;;;4948992;28;20187;-56
2023/12/14 07:57:33;;;;;;;5.60;3.83;;;4.00;99.90;;;;;;4952301;28;20174;-55
2023/12/14 07:59:59;;;;;;;7.67;4.97;;;4.00;99.90;;;;;;4950707;28;20476;-56
2023/12/14 08:02:24;;;;;;;11.50;4.70;;;4.00;99.90;;;;;;4950734;28;20225;-54
2023/12/14 08:04:50;;;;;;;10.23;3.70;;;4.00;99.90;;;;;;4951527;28;20182;-54
2023/12/14 08:07:15;;;;;;;3.80;2.93;;;4.10;99.90;;;;;;4955314;28;20190;-54
2023/12/14 08:09:41;;;;;;;4.40;3.17;;;4.10;99.90;;;;;;4953175;28;20266;-54
2023/12/14 08:12:07;;;;;;;3.27;2.97;;;4.10;99.90;;;;;;4947610;28;20190;-55
2023/12/14 08:14:43;;;;;;;5.00;3.20;;;4.10;99.90;;;;;;4948262;28;20226;-55
2023/12/14 08:17:09;;;;;;;6.07;3.13;;;4.10;99.90;;;;;;4943411;28;20424;-57
2023/12/14 08:19:35;;;;;;;5.93;4.03;;;4.10;99.90;;;;;;4945399;28;20923;-56
2023/12/14 08:22:00;;;;;;;12.03;4.07;;;4.10;99.90;;;;;;4944476;28;20453;-53
2023/12/14 08:24:26;;;;;;;5.30;3.67;;;4.10;99.90;;;;;;4939001;28;20205;-56
2023/12/14 08:26:51;;;;;;;4.90;3.10;;;4.10;99.90;;;;;;4954129;28;20206;-54
2023/12/14 08:29:17;;;;;;;4.37;3.30;;;4.20;99.90;;;;;;4945283;28;20189;-53
2023/12/14 08:31:42;;;;;;;3.70;3.13;;;4.20;99.90;;;;;;4948502;28;20186;-54
2023/12/14 08:34:08;;;;;;;7.30;3.67;;;4.20;99.90;;;;;;4950345;28;20299;-56
2023/12/14 08:36:34;;;;;;;4.50;3.50;;;4.20;99.90;;;;;;4945250;28;20190;-56
2023/12/14 08:39:00;;;;;;;6.33;4.27;;;4.20;99.90;;;;;;4949834;28;20468;-55
2023/12/14 08:41:25;;;;;;;7.63;4.90;;;4.30;99.90;;;;;;4952380;28;20183;-55
2023/12/14 08:43:51;;;;;;;9.70;5.30;;;4.30;99.90;;;;;;4952216;28;20226;-55
2023/12/14 08:46:16;;;;;;;9.23;5.30;;;4.30;99.90;;;;;;4940831;28;20277;-56
2023/12/14 08:48:42;;;;;;;11.37;7.10;;;4.40;99.90;;;;;;4946066;28;20204;-53
2023/12/14 08:51:07;;;;;;;18.40;8.57;;;4.40;99.90;;;;;;4950651;28;20205;-54
2023/12/14 08:53:33;;;;;;;15.40;8.50;;;4.40;99.90;;;;;;4933522;28;20190;-54
2023/12/14 08:55:59;;;;;;;8.30;5.97;;;4.50;99.90;;;;;;4948030;28;20185;-56
2023/12/14 08:58:24;;;;;;;8.93;5.10;;;4.40;99.90;;;;;;4951992;28;20627;-55
2023/12/14 09:00:53;;;;;;;9.73;6.27;;;4.50;99.90;;;;;;4951342;28;20261;-55
2023/12/14 09:03:19;;;;;;;9.40;5.97;;;4.50;99.90;;;;;;4945653;28;20830;-53
2023/12/14 09:05:45;;;;;;;10.77;5.27;;;4.50;99.90;;;;;;4941321;28;20411;-55
2023/12/14 09:08:11;;;;;;;8.60;4.57;;;4.50;99.90;;;;;;4951545;28;20620;-54
2023/12/14 09:10:40;;;;;;;6.13;3.90;;;4.60;99.90;;;;;;4947796;28;20223;-56
2023/12/14 09:13:06;;;;;;;6.00;4.00;;;4.60;99.90;;;;;;4948018;28;20484;-57
2023/12/14 09:15:32;;;;;;;6.00;4.10;;;4.60;99.90;;;;;;4951452;28;20929;-55
2023/12/14 09:17:58;;;;;;;6.20;3.30;;;4.70;99.90;;;;;;4952225;28;20391;-55
2023/12/14 09:20:23;;;;;;;4.47;3.50;;;4.70;99.90;;;;;;4947871;28;20458;-56
2023/12/14 09:22:49;;;;;;;6.17;3.80;;;4.70;99.90;;;;;;4943273;28;20298;-54
2023/12/14 09:25:15;;;;;;;6.00;3.53;;;4.70;99.90;;;;;;4949635;28;20265;-53
2023/12/14 09:27:41;;;;;;;8.97;4.20;;;4.70;99.90;;;;;;4936937;28;20177;-54
2023/12/14 09:30:07;;;;;;;6.13;3.70;;;4.80;99.90;;;;;;4948324;28;20433;-54
2023/12/14 09:32:33;;;;;;;8.77;4.20;;;4.80;99.90;;;;;;4946551;28;20178;-54
2023/12/14 09:34:59;;;;;;;6.10;4.33;;;4.80;99.90;;;;;;4948179;28;20449;-53
2023/12/14 09:37:24;;;;;;;7.07;4.30;;;4.80;99.90;;;;;;4951816;28;20591;-55
2023/12/14 09:39:50;;;;;;;6.60;4.10;;;4.90;99.90;;;;;;4954380;28;20289;-54
2023/12/14 09:42:19;;;;;;;8.00;4.40;;;4.90;99.90;;;;;;4950675;28;20202;-58
2023/12/14 09:44:46;;;;;;;4.20;3.70;;;4.90;99.90;;;;;;4950192;28;20225;-54
2023/12/14 09:47:12;;;;;;;4.57;3.30;;;4.90;99.90;;;;;;4948021;28;20518;-56
2023/12/14 09:49:40;;;;;;;3.93;3.30;;;5.00;99.90;;;;;;4950462;28;20647;-53
2023/12/14 09:52:06;;;;;;;6.40;3.00;;;5.00;99.90;;;;;;4942718;28;20190;-57
2023/12/14 09:54:32;;;;;;;3.13;2.73;;;5.00;99.90;;;;;;4944502;28;20478;-54
2023/12/14 09:56:58;;;;;;;4.37;2.70;;;5.10;99.90;;;;;;4951285;28;20167;-56
2023/12/14 09:59:23;;;;;;;3.67;2.73;;;5.20;99.90;;;;;;4942760;28;20470;-54
2023/12/14 10:01:49;;;;;;;4.17;2.93;;;5.20;99.90;;;;;;4944828;28;20321;-54
2023/12/14 10:04:17;;;;;;;3.37;2.60;;;5.20;99.90;;;;;;4942951;28;20199;-55
2023/12/14 10:06:45;;;;;;;2.30;2.10;;;5.30;99.90;;;;;;4946959;28;20179;-56
2023/12/14 10:09:14;;;;;;;2.67;2.47;;;5.30;99.90;;;;;;4950579;28;20954;-54
2023/12/14 10:11:40;;;;;;;3.00;2.10;;;5.30;99.90;;;;;;4950347;28;20429;-55
2023/12/14 10:14:20;;;;;;;2.27;2.07;;;5.30;99.90;;;;;;4960573;28;20448;-55
2023/12/14 10:16:47;;;;;;;5.13;2.37;;;5.40;99.90;;;;;;4959456;28;20264;-54
2023/12/14 10:19:12;;;;;;;4.27;2.90;;;5.40;99.90;;;;;;4959149;28;20461;-54
2023/12/14 10:21:38;;;;;;;2.80;2.47;;;5.40;99.90;;;;;;4951951;28;21108;-55
2023/12/14 10:24:05;;;;;;;4.17;2.77;;;5.40;99.90;;;;;;4940358;28;20277;-54
2023/12/14 10:26:31;;;;;;;3.53;2.40;;;5.40;99.90;;;;;;4945147;28;20175;-57
2023/12/14 10:28:57;;;;;;;3.13;2.63;;;5.40;99.90;;;;;;4954127;28;20414;-55
2023/12/14 10:31:24;;;;;;;4.77;2.60;;;5.50;99.90;;;;;;4954308;28;20183;-54
2023/12/14 10:33:50;;;;;;;3.93;3.03;;;5.50;99.90;;;;;;4944698;28;20198;-57
2023/12/14 10:36:22;;;;;;;3.53;2.70;;;5.50;99.90;;;;;;4945740;28;20517;-57
2023/12/14 10:38:52;;;;;;;3.00;2.70;;;5.50;99.90;;;;;;4950839;28;20697;-55
2023/12/14 10:41:18;;;;;;;3.47;2.80;;;5.50;99.90;;;;;;4954767;28;20767;-53
2023/12/14 10:43:47;;;;;;;5.30;3.10;;;5.50;99.90;;;;;;4949359;28;20544;-57
2023/12/14 10:46:14;;;;;;;4.30;3.20;;;5.50;99.90;;;;;;4954800;28;20501;-54
2023/12/14 10:48:42;;;;;;;9.40;5.57;;;5.50;99.90;;;;;;4954066;28;20438;-54
2023/12/14 10:51:09;;;;;;;14.03;6.30;;;5.60;99.90;;;;;;4948962;28;20441;-54
2023/12/14 10:53:35;;;;;;;9.73;5.33;;;5.60;99.90;;;;;;4949482;28;21091;-57
2023/12/14 10:56:09;;;;;;;12.00;5.33;;;5.60;99.90;;;;;;4955555;28;20821;-57
2023/12/14 10:58:50;;;;;;;5.77;3.40;;;5.60;99.90;;;;;;4953882;28;21367;-55
2023/12/14 11:01:18;;;;;;;4.07;3.10;;;5.70;99.90;;;;;;4955542;28;20418;-54
2023/12/14 11:03:44;;;;;;;6.60;4.30;;;5.70;99.90;;;;;;4953755;28;20450;-54
2023/12/14 11:06:26;;;;;;;9.73;5.33;;;5.70;99.90;;;;;;4947051;28;20899;-55
2023/12/14 11:08:54;;;;;;;6.00;3.87;;;5.70;99.90;;;;;;4953212;28;20422;-55
2023/12/14 11:11:20;;;;;;;10.87;6.23;;;5.80;99.90;;;;;;4940448;28;20444;-55
2023/12/14 11:13:52;;;;;;;10.70;5.87;;;5.80;99.90;;;;;;4949897;28;20793;-55
2023/12/14 11:16:21;;;;;;;5.00;3.80;;;5.80;99.90;;;;;;4948232;28;20531;-55
2023/12/14 11:18:46;;;;;;;8.17;6.00;;;5.80;99.90;;;;;;4961215;28;20515;-57
2023/12/14 11:21:20;;;;;;;3.90;2.90;;;5.80;99.90;;;;;;4940236;28;20426;-55
2023/12/14 11:23:45;;;;;;;3.13;2.37;;;5.70;99.90;;;;;;4948930;28;20292;-55
2023/12/14 11:26:11;;;;;;;2.47;2.00;;;5.70;99.90;;;;;;4951503;28;20494;-58
2023/12/14 11:28:42;;;;;;;1.97;1.87;;;5.70;99.90;;;;;;4953349;28;20183;-54
2023/12/14 11:31:10;;;;;;;2.13;1.83;;;5.70;99.90;;;;;;4953015;28;20680;-55
2023/12/14 11:33:36;;;;;;;1.93;1.73;;;5.70;99.90;;;;;;4951056;28;20585;-55
2023/12/14 11:36:05;;;;;;;1.93;1.83;;;5.70;99.90;;;;;;4960983;28;20887;-55
2023/12/14 11:38:32;;;;;;;2.40;2.20;;;5.80;99.90;;;;;;4953410;28;20210;-54
2023/12/14 11:40:59;;;;;;;2.37;2.17;;;5.80;99.90;;;;;;4947467;28;20442;-56
2023/12/14 11:43:26;;;;;;;2.40;2.20;;;5.80;99.90;;;;;;4953066;28;20430;-54
2023/12/14 11:45:52;;;;;;;2.17;1.97;;;5.90;99.90;;;;;;4953201;28;20480;-56
2023/12/14 11:48:20;;;;;;;2.47;2.00;;;5.90;99.90;;;;;;4955893;28;20407;-57
2023/12/14 11:50:46;;;;;;;1.67;1.50;;;6.00;99.90;;;;;;4949804;28;20434;-54
2023/12/14 11:53:13;;;;;;;1.80;1.70;;;6.00;99.90;;;;;;4946408;28;20442;-55
2023/12/14 11:55:40;;;;;;;1.70;1.60;;;6.00;99.90;;;;;;4949333;28;20843;-54
2023/12/14 11:58:06;;;;;;;2.10;2.00;;;6.00;99.90;;;;;;4953765;28;20481;-57
2023/12/14 12:00:33;;;;;;;2.47;2.00;;;6.00;99.90;;;;;;4946351;28;20553;-55
2023/12/14 12:03:13;;;;;;;1.80;1.70;;;6.10;99.90;;;;;;4947938;28;20445;-54
2023/12/14 12:05:42;;;;;;;1.33;1.23;;;6.10;99.90;;;;;;4949823;28;20453;-54
2023/12/14 12:08:09;;;;;;;1.57;1.47;;;6.20;99.90;;;;;;4944716;28;20422;-54
2023/12/14 12:10:35;;;;;;;1.60;1.50;;;6.20;99.90;;;;;;4955137;28;20989;-54
2023/12/14 12:13:05;;;;;;;3.50;1.43;;;6.10;99.90;;;;;;4945703;28;20443;-56
2023/12/14 12:15:35;;;;;;;2.23;2.07;;;6.10;99.90;;;;;;4940292;28;20433;-56
2023/12/14 12:18:04;;;;;;;2.03;1.83;;;6.10;99.90;;;;;;4942934;28;20453;-55
2023/12/14 12:20:29;;;;;;;2.00;1.80;;;6.10;99.90;;;;;;4945300;28;20477;-55
2023/12/14 12:22:55;;;;;;;2.27;2.07;;;6.20;99.90;;;;;;4950455;28;20458;-56
2023/12/14 12:25:21;;;;;;;2.17;1.97;;;6.20;99.90;;;;;;4951155;28;20545;-57
2023/12/14 12:27:47;;;;;;;1.80;1.60;;;6.20;99.90;;;;;;4953238;28;20174;-56
2023/12/14 12:30:12;;;;;;;1.73;1.60;;;6.20;99.90;;;;;;4943180;28;20414;-55
2023/12/14 12:32:39;;;;;;;3.17;2.20;;;6.30;99.90;;;;;;4944646;28;20181;-56
2023/12/14 12:35:05;;;;;;;2.70;2.07;;;6.30;99.90;;;;;;4947513;28;20185;-54
2023/12/14 12:37:30;;;;;;;1.60;1.13;;;6.30;99.90;;;;;;4952736;28;20416;-53
2023/12/14 12:39:56;;;;;;;1.50;1.40;;;6.30;99.90;;;;;;4951762;28;20471;-55
2023/12/14 12:42:21;;;;;;;1.20;1.10;;;6.30;99.90;;;;;;4949689;28;20580;-52
2023/12/14 12:44:47;;;;;;;1.27;1.07;;;6.30;99.90;;;;;;4953577;28;20186;-55
2023/12/14 12:47:13;;;;;;;1.33;1.23;;;6.20;99.90;;;;;;4944017;28;20697;-54
2023/12/14 12:49:38;;;;;;;1.20;1.10;;;6.20;99.90;;;;;;4949797;28;20178;-54